sensor_id;sensor_type;location;lat;lon;timestamp;pressure;altitude;pressure_sealevel;temperature;humidity
20160;BME280;50187;50.492;12.134;2022-09-27T00:01:04;95795.25;;;19.52;46.40
20160;BME280;50187;50.492;12.134;2022-09-27T00:03:52;95771.81;;;19.52;46.49
20160;BME280;50187;50.492;12.134;2022-09-27T00:06:39;95761.19;;;19.44;46.22
20160;BME280;50187;50.492;12.134;2022-09-27T00:09:25;95771.56;;;19.47;46.64
20160;BME280;50187;50.492;12.134;2022-09-27T00:12:10;95767.81;;;19.42;46.56
20160;BME280;50187;50.492;12.134;2022-09-27T00:14:55;95763.50;;;19.41;46.76
20160;BME280;50187;50.492;12.134;2022-09-27T00:17:41;95754.75;;;19.38;46.72
20160;BME280;50187;50.492;12.134;2022-09-27T00:20:26;95752.25;;;19.37;46.65
20160;BME280;50187;50.492;12.134;2022-09-27T00:23:12;95745.41;;;19.34;46.97
20160;BME280;50187;50.492;12.134;2022-09-27T00:25:58;95724.00;;;19.26;47.01
20160;BME280;50187;50.492;12.134;2022-09-27T00:28:43;95743.94;;;19.32;46.98
20160;BME280;50187;50.492;12.134;2022-09-27T00:31:29;95742.06;;;19.26;47.00
20160;BME280;50187;50.492;12.134;2022-09-27T00:34:20;95737.50;;;19.26;46.87
20160;BME280;50187;50.492;12.134;2022-09-27T00:37:07;95726.72;;;19.19;47.01
20160;BME280;50187;50.492;12.134;2022-09-27T00:39:53;95726.31;;;19.22;47.09
20160;BME280;50187;50.492;12.134;2022-09-27T00:42:37;95722.59;;;19.24;46.96
20160;BME280;50187;50.492;12.134;2022-09-27T00:45:23;95709.91;;;19.17;47.04
20160;BME280;50187;50.492;12.134;2022-09-27T00:48:12;95713.84;;;19.21;47.36
20160;BME280;50187;50.492;12.134;2022-09-27T00:51:02;95701.41;;;19.20;47.27
20160;BME280;50187;50.492;12.134;2022-09-27T00:53:51;95698.09;;;19.18;47.18
20160;BME280;50187;50.492;12.134;2022-09-27T00:56:39;95697.28;;;19.18;47.22
20160;BME280;50187;50.492;12.134;2022-09-27T00:59:29;95695.59;;;19.17;47.28
20160;BME280;50187;50.492;12.134;2022-09-27T01:02:18;95694.13;;;19.14;47.22
20160;BME280;50187;50.492;12.134;2022-09-27T01:05:07;95693.72;;;19.17;47.19
20160;BME280;50187;50.492;12.134;2022-09-27T01:07:53;95685.03;;;19.15;47.26
20160;BME280;50187;50.492;12.134;2022-09-27T01:11:19;95678.78;;;19.15;47.48
20160;BME280;50187;50.492;12.134;2022-09-27T01:15:04;95677.16;;;19.14;47.42
20160;BME280;50187;50.492;12.134;2022-09-27T01:18:09;95674.66;;;19.12;47.54
20160;BME280;50187;50.492;12.134;2022-09-27T01:24:11;95673.19;;;19.10;47.51
20160;BME280;50187;50.492;12.134;2022-09-27T01:36:16;95652.25;;;19.12;47.30
20160;BME280;50187;50.492;12.134;2022-09-27T01:39:31;95641.06;;;19.08;47.53
20160;BME280;50187;50.492;12.134;2022-09-27T01:46:07;95633.78;;;19.09;47.46
20160;BME280;50187;50.492;12.134;2022-09-27T01:49:38;95637.31;;;19.09;47.41
20160;BME280;50187;50.492;12.134;2022-09-27T01:52:34;95631.09;;;19.09;47.63
20160;BME280;50187;50.492;12.134;2022-09-27T01:55:23;95624.91;;;19.08;47.52
20160;BME280;50187;50.492;12.134;2022-09-27T01:58:46;95622.41;;;19.07;47.71
20160;BME280;50187;50.492;12.134;2022-09-27T02:01:38;95616.56;;;19.03;47.58
20160;BME280;50187;50.492;12.134;2022-09-27T02:04:27;95618.47;;;19.02;47.44
20160;BME280;50187;50.492;12.134;2022-09-27T02:07:41;95613.28;;;19.01;47.55
20160;BME280;50187;50.492;12.134;2022-09-27T02:10:33;95604.34;;;19.00;47.75
20160;BME280;50187;50.492;12.134;2022-09-27T02:13:37;95599.16;;;18.99;47.76
20160;BME280;50187;50.492;12.134;2022-09-27T02:20:34;95600.19;;;18.98;47.80
20160;BME280;50187;50.492;12.134;2022-09-27T02:23:37;95588.38;;;18.99;47.65
20160;BME280;50187;50.492;12.134;2022-09-27T02:26:35;95591.28;;;18.97;47.70
20160;BME280;50187;50.492;12.134;2022-09-27T02:29:29;95602.88;;;18.98;47.56
20160;BME280;50187;50.492;12.134;2022-09-27T02:32:18;95586.50;;;18.99;47.80
20160;BME280;50187;50.492;12.134;2022-09-27T02:35:12;95570.56;;;18.98;47.82
20160;BME280;50187;50.492;12.134;2022-09-27T02:38:00;95572.63;;;18.96;47.64
20160;BME280;50187;50.492;12.134;2022-09-27T02:40:47;95568.91;;;18.97;47.60
20160;BME280;50187;50.492;12.134;2022-09-27T02:43:32;95574.31;;;18.97;47.67
20160;BME280;50187;50.492;12.134;2022-09-27T02:56:18;95562.69;;;18.96;47.79
20160;BME280;50187;50.492;12.134;2022-09-27T03:02:52;95563.53;;;18.97;47.64
20160;BME280;50187;50.492;12.134;2022-09-27T03:05:51;95558.34;;;18.95;47.67
20160;BME280;50187;50.492;12.134;2022-09-27T03:08:38;95565.56;;;18.95;47.81
20160;BME280;50187;50.492;12.134;2022-09-27T03:11:24;95557.91;;;18.92;47.70
20160;BME280;50187;50.492;12.134;2022-09-27T03:14:09;95557.91;;;18.92;47.69
20160;BME280;50187;50.492;12.134;2022-09-27T03:17:01;95548.81;;;18.93;47.72
20160;BME280;50187;50.492;12.134;2022-09-27T03:20:06;95552.53;;;18.92;47.74
20160;BME280;50187;50.492;12.134;2022-09-27T03:23:15;95557.28;;;18.90;47.63
20160;BME280;50187;50.492;12.134;2022-09-27T03:26:00;95557.28;;;18.90;47.74
20160;BME280;50187;50.492;12.134;2022-09-27T03:28:46;95556.44;;;18.89;47.87
20160;BME280;50187;50.492;12.134;2022-09-27T03:31:32;95556.25;;;18.91;47.93
20160;BME280;50187;50.492;12.134;2022-09-27T03:34:36;95548.56;;;18.87;47.72
20160;BME280;50187;50.492;12.134;2022-09-27T03:37:21;95542.16;;;18.88;47.89
20160;BME280;50187;50.492;12.134;2022-09-27T03:40:07;95549.78;;;18.85;47.86
20160;BME280;50187;50.492;12.134;2022-09-27T03:42:52;95545.22;;;18.85;48.01
20160;BME280;50187;50.492;12.134;2022-09-27T03:45:38;95539.84;;;18.85;48.02
20160;BME280;50187;50.492;12.134;2022-09-27T03:48:26;95525.13;;;18.81;47.78
20160;BME280;50187;50.492;12.134;2022-09-27T03:51:12;95528.69;;;18.88;47.93
20160;BME280;50187;50.492;12.134;2022-09-27T03:53:58;95534.91;;;18.89;47.86
20160;BME280;50187;50.492;12.134;2022-09-27T03:56:44;95526.22;;;18.87;47.73
20160;BME280;50187;50.492;12.134;2022-09-27T03:59:29;95513.13;;;18.84;47.90
20160;BME280;50187;50.492;12.134;2022-09-27T04:02:34;95508.75;;;18.83;47.97
20160;BME280;50187;50.492;12.134;2022-09-27T04:05:38;95511.66;;;18.81;48.03
20160;BME280;50187;50.492;12.134;2022-09-27T04:08:28;95509.59;;;18.83;48.04
20160;BME280;50187;50.492;12.134;2022-09-27T04:11:14;95504.59;;;18.80;48.03
20160;BME280;50187;50.492;12.134;2022-09-27T04:14:02;95518.91;;;18.81;47.88
20160;BME280;50187;50.492;12.134;2022-09-27T04:16:55;95514.16;;;18.83;47.96
20160;BME280;50187;50.492;12.134;2022-09-27T04:19:56;95520.56;;;18.82;47.86
20160;BME280;50187;50.492;12.134;2022-09-27T04:22:44;95525.13;;;18.81;48.12
20160;BME280;50187;50.492;12.134;2022-09-27T04:25:30;95527.41;;;18.84;47.90
20160;BME280;50187;50.492;12.134;2022-09-27T04:28:22;95533.22;;;18.81;48.01
20160;BME280;50187;50.492;12.134;2022-09-27T04:31:08;95512.28;;;18.83;47.92
20160;BME280;50187;50.492;12.134;2022-09-27T04:34:32;95505.03;;;18.77;47.93
20160;BME280;50187;50.492;12.134;2022-09-27T04:37:40;95520.34;;;18.83;47.82
20160;BME280;50187;50.492;12.134;2022-09-27T04:40:28;95518.69;;;18.82;47.85
20160;BME280;50187;50.492;12.134;2022-09-27T04:43:13;95508.75;;;18.83;47.88
20160;BME280;50187;50.492;12.134;2022-09-27T04:45:58;95510.81;;;18.81;47.83
20160;BME280;50187;50.492;12.134;2022-09-27T04:48:44;95514.16;;;18.83;48.07
20160;BME280;50187;50.492;12.134;2022-09-27T04:51:29;95518.91;;;18.81;47.97
20160;BME280;50187;50.492;12.134;2022-09-27T04:54:14;95515.38;;;18.80;48.03
20160;BME280;50187;50.492;12.134;2022-09-27T04:57:08;95529.47;;;18.82;47.88
20160;BME280;50187;50.492;12.134;2022-09-27T04:59:55;95516.00;;;18.82;48.02
20160;BME280;50187;50.492;12.134;2022-09-27T05:02:42;95510.59;;;18.82;48.01
20160;BME280;50187;50.492;12.134;2022-09-27T05:05:50;95518.69;;;18.82;47.77
20160;BME280;50187;50.492;12.134;2022-09-27T05:08:36;95525.75;;;18.83;47.80
20160;BME280;50187;50.492;12.134;2022-09-27T05:11:36;95519.94;;;18.80;47.83
20160;BME280;50187;50.492;12.134;2022-09-27T05:14:34;95518.28;;;18.79;48.06
20160;BME280;50187;50.492;12.134;2022-09-27T05:17:38;95514.13;;;18.76;48.06
20160;BME280;50187;50.492;12.134;2022-09-27T05:20:43;95514.34;;;18.75;47.96
20160;BME280;50187;50.492;12.134;2022-09-27T05:23:39;95507.91;;;18.76;47.93
20160;BME280;50187;50.492;12.134;2022-09-27T05:26:30;95516.63;;;18.78;48.00
20160;BME280;50187;50.492;12.134;2022-09-27T05:29:15;95509.56;;;18.77;47.90
20160;BME280;50187;50.492;12.134;2022-09-27T05:32:09;95516.81;;;18.76;48.04
20160;BME280;50187;50.492;12.134;2022-09-27T05:34:54;95524.91;;;18.76;48.01
20160;BME280;50187;50.492;12.134;2022-09-27T05:37:39;95514.94;;;18.77;47.81
20160;BME280;50187;50.492;12.134;2022-09-27T05:40:25;95517.03;;;18.75;48.08
20160;BME280;50187;50.492;12.134;2022-09-27T05:43:26;95515.16;;;18.75;47.85
20160;BME280;50187;50.492;12.134;2022-09-27T05:46:14;95517.84;;;18.75;48.01
20160;BME280;50187;50.492;12.134;2022-09-27T05:49:00;95518.25;;;18.72;48.19
20160;BME280;50187;50.492;12.134;2022-09-27T05:51:46;95519.06;;;18.73;47.84
20160;BME280;50187;50.492;12.134;2022-09-27T05:54:32;95512.06;;;18.71;47.84
20160;BME280;50187;50.492;12.134;2022-09-27T05:57:18;95516.22;;;18.74;47.97
20160;BME280;50187;50.492;12.134;2022-09-27T06:00:04;95518.69;;;18.76;47.93
20160;BME280;50187;50.492;12.134;2022-09-27T06:02:58;95520.75;;;18.74;47.85
20160;BME280;50187;50.492;12.134;2022-09-27T06:06:03;95521.59;;;18.74;48.01
20160;BME280;50187;50.492;12.134;2022-09-27T06:09:01;95517.84;;;18.75;47.95
20160;BME280;50187;50.492;12.134;2022-09-27T06:11:46;95525.31;;;18.73;48.09
20160;BME280;50187;50.492;12.134;2022-09-27T06:14:33;95530.69;;;18.73;47.98
20160;BME280;50187;50.492;12.134;2022-09-27T06:17:26;95537.75;;;18.74;48.10
20160;BME280;50187;50.492;12.134;2022-09-27T06:20:12;95529.47;;;18.76;47.96
20160;BME280;50187;50.492;12.134;2022-09-27T06:23:16;95534.66;;;18.77;47.99
20160;BME280;50187;50.492;12.134;2022-09-27T06:26:04;95531.97;;;18.77;47.94
20160;BME280;50187;50.492;12.134;2022-09-27T06:29:09;95537.53;;;18.76;47.98
20160;BME280;50187;50.492;12.134;2022-09-27T06:31:59;95531.75;;;18.79;47.80
20160;BME280;50187;50.492;12.134;2022-09-27T06:34:51;95530.09;;;18.78;47.92
20160;BME280;50187;50.492;12.134;2022-09-27T06:37:36;95530.28;;;18.76;47.83
20160;BME280;50187;50.492;12.134;2022-09-27T06:40:22;95531.31;;;18.75;47.74
20160;BME280;50187;50.492;12.134;2022-09-27T06:43:17;95534.00;;;18.75;47.93
20160;BME280;50187;50.492;12.134;2022-09-27T06:46:25;95533.63;;;18.78;47.90
20160;BME280;50187;50.492;12.134;2022-09-27T06:49:30;95537.75;;;18.74;47.96
20160;BME280;50187;50.492;12.134;2022-09-27T06:52:17;95542.28;;;18.74;48.11
20160;BME280;50187;50.492;12.134;2022-09-27T06:55:03;95543.97;;;18.75;47.92
20160;BME280;50187;50.492;12.134;2022-09-27T06:57:58;95546.66;;;18.75;48.04
20160;BME280;50187;50.492;12.134;2022-09-27T07:01:26;95553.50;;;18.77;47.89
20160;BME280;50187;50.492;12.134;2022-09-27T07:04:40;95551.41;;;18.79;47.81
20160;BME280;50187;50.492;12.134;2022-09-27T07:07:27;95558.47;;;18.80;47.76
20160;BME280;50187;50.492;12.134;2022-09-27T07:10:13;95555.16;;;18.78;47.94
20160;BME280;50187;50.492;12.134;2022-09-27T07:13:06;95553.91;;;18.74;47.93
20160;BME280;50187;50.492;12.134;2022-09-27T07:15:52;95562.19;;;18.79;47.82
20160;BME280;50187;50.492;12.134;2022-09-27T07:18:38;95558.88;;;18.77;47.86
20160;BME280;50187;50.492;12.134;2022-09-27T07:21:24;95569.44;;;18.79;47.98
20160;BME280;50187;50.492;12.134;2022-09-27T07:24:09;95575.88;;;18.78;47.84
20160;BME280;50187;50.492;12.134;2022-09-27T07:26:55;95586.44;;;18.79;47.80
20160;BME280;50187;50.492;12.134;2022-09-27T07:29:41;95575.44;;;18.81;47.97
20160;BME280;50187;50.492;12.134;2022-09-27T07:32:26;95580.03;;;18.80;47.75
20160;BME280;50187;50.492;12.134;2022-09-27T07:35:12;95582.72;;;18.80;47.96
20160;BME280;50187;50.492;12.134;2022-09-27T07:38:01;95581.69;;;18.81;47.79
20160;BME280;50187;50.492;12.134;2022-09-27T07:40:47;95584.38;;;18.81;47.75
20160;BME280;50187;50.492;12.134;2022-09-27T07:43:33;95592.47;;;18.81;47.70
20160;BME280;50187;50.492;12.134;2022-09-27T07:46:18;95592.88;;;18.78;47.77
20160;BME280;50187;50.492;12.134;2022-09-27T07:49:23;95599.06;;;18.79;47.94
20160;BME280;50187;50.492;12.134;2022-09-27T07:52:39;95600.94;;;18.78;47.79
20160;BME280;50187;50.492;12.134;2022-09-27T07:55:52;95607.38;;;18.77;47.74
20160;BME280;50187;50.492;12.134;2022-09-27T07:58:41;95600.31;;;18.76;47.88
20160;BME280;50187;50.492;12.134;2022-09-27T08:01:27;95603.00;;;18.76;47.96
20160;BME280;50187;50.492;12.134;2022-09-27T08:04:12;95616.47;;;18.76;47.82
20160;BME280;50187;50.492;12.134;2022-09-27T08:06:59;95604.88;;;18.76;48.01
20160;BME280;50187;50.492;12.134;2022-09-27T08:09:46;95611.06;;;18.76;47.95
20160;BME280;50187;50.492;12.134;2022-09-27T08:12:31;95613.78;;;18.76;47.79
20160;BME280;50187;50.492;12.134;2022-09-27T08:15:17;95610.66;;;18.79;47.78
20160;BME280;50187;50.492;12.134;2022-09-27T08:18:03;95619.16;;;18.76;47.82
20160;BME280;50187;50.492;12.134;2022-09-27T08:21:15;95617.94;;;18.79;47.75
20160;BME280;50187;50.492;12.134;2022-09-27T08:24:28;95617.13;;;18.78;47.78
20160;BME280;50187;50.492;12.134;2022-09-27T08:27:20;95618.34;;;18.76;48.00
20160;BME280;50187;50.492;12.134;2022-09-27T08:30:11;95624.34;;;18.78;48.01
20160;BME280;50187;50.492;12.134;2022-09-27T08:32:57;95621.84;;;18.76;48.01
20160;BME280;50187;50.492;12.134;2022-09-27T08:35:43;95640.28;;;18.79;47.81
20160;BME280;50187;50.492;12.134;2022-09-27T08:38:29;95623.53;;;18.77;47.92
20160;BME280;50187;50.492;12.134;2022-09-27T08:41:34;95635.75;;;18.80;47.92
20160;BME280;50187;50.492;12.134;2022-09-27T08:44:38;95644.41;;;18.75;47.88
20160;BME280;50187;50.492;12.134;2022-09-27T08:47:45;95653.97;;;18.78;48.04
20160;BME280;50187;50.492;12.134;2022-09-27T08:50:36;95646.31;;;18.81;47.68
20160;BME280;50187;50.492;12.134;2022-09-27T08:53:40;95662.69;;;18.80;47.76
20160;BME280;50187;50.492;12.134;2022-09-27T08:56:27;95670.78;;;18.80;47.78
20160;BME280;50187;50.492;12.134;2022-09-27T08:59:15;95670.78;;;18.80;47.62
20160;BME280;50187;50.492;12.134;2022-09-27T09:02:12;95676.97;;;18.80;48.03
20160;BME280;50187;50.492;12.134;2022-09-27T09:05:07;95680.50;;;18.81;47.83
20160;BME280;50187;50.492;12.134;2022-09-27T09:08:36;95680.69;;;18.79;47.82
20160;BME280;50187;50.492;12.134;2022-09-27T09:22:34;95696.84;;;18.79;47.86
20160;BME280;50187;50.492;12.134;2022-09-27T09:25:32;95710.72;;;18.76;47.79
20160;BME280;50187;50.492;12.134;2022-09-27T09:28:52;95698.72;;;18.79;47.98
20160;BME280;50187;50.492;12.134;2022-09-27T09:31:37;95708.69;;;18.78;48.01
20160;BME280;50187;50.492;12.134;2022-09-27T09:34:34;95708.69;;;18.78;48.01
20160;BME280;50187;50.492;12.134;2022-09-27T09:37:40;95723.78;;;18.79;47.97
20160;BME280;50187;50.492;12.134;2022-09-27T09:40:44;95727.53;;;18.78;47.71
20160;BME280;50187;50.492;12.134;2022-09-27T09:43:41;95724.22;;;18.83;47.86
20160;BME280;50187;50.492;12.134;2022-09-27T09:46:36;95735.91;;;18.90;47.72
20160;BME280;50187;50.492;12.134;2022-09-27T09:49:35;95739.44;;;18.97;47.67
20160;BME280;50187;50.492;12.134;2022-09-27T09:52:23;95735.94;;;18.97;47.75
20160;BME280;50187;50.492;12.134;2022-09-27T09:55:25;95740.13;;;19.06;47.75
20160;BME280;50187;50.492;12.134;2022-09-27T10:01:18;95745.28;;;19.08;47.86
20160;BME280;50187;50.492;12.134;2022-09-27T10:04:04;95738.28;;;19.13;47.85
20160;BME280;50187;50.492;12.134;2022-09-27T10:06:51;95742.03;;;19.12;47.49
20160;BME280;50187;50.492;12.134;2022-09-27T10:09:37;95754.06;;;19.16;47.35
20160;BME280;50187;50.492;12.134;2022-09-27T10:13:02;95741.16;;;19.12;47.24
20160;BME280;50187;50.492;12.134;2022-09-27T10:16:04;95765.22;;;19.13;47.04
20160;BME280;50187;50.492;12.134;2022-09-27T10:18:56;95749.25;;;19.05;47.13
20160;BME280;50187;50.492;12.134;2022-09-27T10:21:45;95764.81;;;19.10;47.45
20160;BME280;50187;50.492;12.134;2022-09-27T10:24:52;95769.56;;;19.08;47.24
20160;BME280;50187;50.492;12.134;2022-09-27T10:27:55;95771.19;;;19.02;47.33
20160;BME280;50187;50.492;12.134;2022-09-27T10:30:54;95780.13;;;19.02;47.39
20160;BME280;50187;50.492;12.134;2022-09-27T10:33:54;95776.09;;;18.92;47.66
20160;BME280;50187;50.492;12.134;2022-09-27T10:36:42;95777.19;;;18.97;47.29
20160;BME280;50187;50.492;12.134;2022-09-27T10:39:28;95782.56;;;18.97;47.63
20160;BME280;50187;50.492;12.134;2022-09-27T10:42:34;95775.50;;;18.96;47.67
20160;BME280;50187;50.492;12.134;2022-09-27T10:45:32;95786.28;;;18.96;47.65
20160;BME280;50187;50.492;12.134;2022-09-27T10:48:28;95785.47;;;18.96;47.41
20160;BME280;50187;50.492;12.134;2022-09-27T10:51:29;95787.34;;;18.95;47.68
20160;BME280;50187;50.492;12.134;2022-09-27T10:54:31;95785.88;;;18.93;47.66
20160;BME280;50187;50.492;12.134;2022-09-27T10:57:20;95787.69;;;18.92;47.70
20160;BME280;50187;50.492;12.134;2022-09-27T11:00:21;95802.75;;;18.86;47.61
20160;BME280;50187;50.492;12.134;2022-09-27T11:03:14;95791.25;;;18.93;47.46
20160;BME280;50187;50.492;12.134;2022-09-27T11:09:17;95786.47;;;18.95;47.50
20160;BME280;50187;50.492;12.134;2022-09-27T11:12:15;95789.38;;;18.93;47.64
20160;BME280;50187;50.492;12.134;2022-09-27T11:15:08;95788.75;;;18.91;47.52
20160;BME280;50187;50.492;12.134;2022-09-27T11:18:11;95795.59;;;18.94;47.65
20160;BME280;50187;50.492;12.134;2022-09-27T11:24:24;95778.41;;;18.95;47.70
20160;BME280;50187;50.492;12.134;2022-09-27T11:30:13;95780.22;;;18.87;47.52
20160;BME280;50187;50.492;12.134;2022-09-27T11:42:37;95774.44;;;18.91;47.50
20160;BME280;50187;50.492;12.134;2022-09-27T11:45:32;95776.72;;;18.87;47.68
20160;BME280;50187;50.492;12.134;2022-09-27T11:57:27;95774.56;;;19.17;47.30
20160;BME280;50187;50.492;12.134;2022-09-27T12:00:19;95768.97;;;19.19;47.19
20160;BME280;50187;50.492;12.134;2022-09-27T12:06:50;95774.38;;;19.19;47.06
20160;BME280;50187;50.492;12.134;2022-09-27T12:09:42;95778.94;;;19.18;47.03
20160;BME280;50187;50.492;12.134;2022-09-27T12:12:32;95780.38;;;19.14;47.05
20160;BME280;50187;50.492;12.134;2022-09-27T12:15:27;95783.25;;;19.13;47.30
20160;BME280;50187;50.492;12.134;2022-09-27T12:18:26;95792.56;;;19.10;47.23
20160;BME280;50187;50.492;12.134;2022-09-27T12:21:14;95803.34;;;19.10;47.20
20160;BME280;50187;50.492;12.134;2022-09-27T12:24:00;95799.78;;;19.03;47.22
20160;BME280;50187;50.492;12.134;2022-09-27T12:26:57;95799.59;;;19.04;47.29
20160;BME280;50187;50.492;12.134;2022-09-27T12:29:45;95795.22;;;18.97;47.39
20160;BME280;50187;50.492;12.134;2022-09-27T12:35:53;95780.41;;;18.86;47.49
20160;BME280;50187;50.492;12.134;2022-09-27T12:39:03;95790.19;;;18.94;47.45
20160;BME280;50187;50.492;12.134;2022-09-27T12:41:57;95794.97;;;18.92;47.51
20160;BME280;50187;50.492;12.134;2022-09-27T12:45:04;95805.75;;;18.92;47.49
20160;BME280;50187;50.492;12.134;2022-09-27T12:51:07;95798.47;;;18.92;47.44
20160;BME280;50187;50.492;12.134;2022-09-27T13:00:11;95800.19;;;19.00;47.37
20160;BME280;50187;50.492;12.134;2022-09-27T13:12:18;95807.88;;;19.03;47.17
20160;BME280;50187;50.492;12.134;2022-09-27T13:15:14;95808.69;;;19.03;47.17
20160;BME280;50187;50.492;12.134;2022-09-27T13:21:09;95810.16;;;19.06;47.23
20160;BME280;50187;50.492;12.134;2022-09-27T13:24:28;95802.34;;;19.11;47.31
20160;BME280;50187;50.492;12.134;2022-09-27T13:36:29;95788.28;;;19.22;46.95
20160;BME280;50187;50.492;12.134;2022-09-27T13:39:20;95789.97;;;19.24;46.88
20160;BME280;50187;50.492;12.134;2022-09-27T13:42:39;95784.94;;;19.20;46.97
20160;BME280;50187;50.492;12.134;2022-09-27T13:45:35;95791.38;;;19.19;47.03
20160;BME280;50187;50.492;12.134;2022-09-27T13:51:35;95787.03;;;19.18;46.87
20160;BME280;50187;50.492;12.134;2022-09-27T13:54:49;95793.22;;;19.19;46.87
20160;BME280;50187;50.492;12.134;2022-09-27T13:57:40;95792.41;;;19.18;46.99
20160;BME280;50187;50.492;12.134;2022-09-27T14:00:37;95798.25;;;19.22;46.95
20160;BME280;50187;50.492;12.134;2022-09-27T14:03:31;95798.03;;;19.24;46.85
20160;BME280;50187;50.492;12.134;2022-09-27T14:06:24;95793.03;;;19.20;46.88
20160;BME280;50187;50.492;12.134;2022-09-27T14:09:17;95793.22;;;19.19;46.87
20160;BME280;50187;50.492;12.134;2022-09-27T14:12:11;95811.47;;;19.17;46.92
20160;BME280;50187;50.492;12.134;2022-09-27T14:14:57;95810.38;;;19.04;46.92
20160;BME280;50187;50.492;12.134;2022-09-27T14:17:44;95808.78;;;19.17;46.94
20160;BME280;50187;50.492;12.134;2022-09-27T14:20:49;95807.97;;;19.16;47.02
20160;BME280;50187;50.492;12.134;2022-09-27T14:30:14;95817.06;;;19.15;46.73
20160;BME280;50187;50.492;12.134;2022-09-27T14:33:03;95818.50;;;19.11;46.87
20160;BME280;50187;50.492;12.134;2022-09-27T14:36:21;95818.28;;;19.13;46.87
20160;BME280;50187;50.492;12.134;2022-09-27T14:39:31;95829.91;;;19.13;47.02
20160;BME280;50187;50.492;12.134;2022-09-27T14:42:25;95834.88;;;19.10;47.12
20160;BME280;50187;50.492;12.134;2022-09-27T14:47:57;95827.00;;;19.08;46.83
20160;BME280;50187;50.492;12.134;2022-09-27T14:50:53;95827.81;;;19.09;46.84
20160;BME280;50187;50.492;12.134;2022-09-27T14:56:34;95827.00;;;19.08;47.01
20160;BME280;50187;50.492;12.134;2022-09-27T14:59:26;95822.63;;;19.07;47.22
20160;BME280;50187;50.492;12.134;2022-09-27T15:02:18;95827.00;;;19.08;46.95
20160;BME280;50187;50.492;12.134;2022-09-27T15:05:12;95825.13;;;19.09;46.89
20160;BME280;50187;50.492;12.134;2022-09-27T15:08:02;95824.91;;;19.10;46.82
20160;BME280;50187;50.492;12.134;2022-09-27T15:10:48;95833.84;;;19.11;47.08
20160;BME280;50187;50.492;12.134;2022-09-27T15:13:34;95840.47;;;19.08;47.19
20160;BME280;50187;50.492;12.134;2022-09-27T15:16:21;95833.19;;;19.09;47.18
20160;BME280;50187;50.492;12.134;2022-09-27T15:19:16;95835.06;;;19.08;46.94
20160;BME280;50187;50.492;12.134;2022-09-27T15:22:35;95842.94;;;19.10;47.16
20160;BME280;50187;50.492;12.134;2022-09-27T15:30:57;95851.25;;;19.08;47.73
20160;BME280;50187;50.492;12.134;2022-09-27T15:33:52;95851.25;;;19.15;47.98
20160;BME280;50187;50.492;12.134;2022-09-27T15:36:52;95849.88;;;19.26;47.66
20160;BME280;50187;50.492;12.134;2022-09-27T15:39:39;95851.59;;;19.40;47.71
20160;BME280;50187;50.492;12.134;2022-09-27T15:42:24;95842.53;;;19.48;47.48
20160;BME280;50187;50.492;12.134;2022-09-27T15:45:35;95853.19;;;19.69;47.27
20160;BME280;50187;50.492;12.134;2022-09-27T15:48:22;95864.06;;;19.83;46.79
20160;BME280;50187;50.492;12.134;2022-09-27T15:51:37;95860.38;;;19.97;46.77
20160;BME280;50187;50.492;12.134;2022-09-27T15:54:25;95871.59;;;20.07;46.66
20160;BME280;50187;50.492;12.134;2022-09-27T15:57:11;95872.03;;;20.18;46.54
20160;BME280;50187;50.492;12.134;2022-09-27T15:59:56;95877.91;;;20.28;46.85
20160;BME280;50187;50.492;12.134;2022-09-27T16:02:41;95873.75;;;20.39;47.08
20160;BME280;50187;50.492;12.134;2022-09-27T16:05:26;95881.22;;;20.50;47.03
20160;BME280;50187;50.492;12.134;2022-09-27T16:08:13;95876.28;;;20.61;46.76
20160;BME280;50187;50.492;12.134;2022-09-27T16:10:58;95872.56;;;20.68;46.57
20160;BME280;50187;50.492;12.134;2022-09-27T16:13:44;95876.72;;;20.71;46.52
20160;BME280;50187;50.492;12.134;2022-09-27T16:16:29;95886.50;;;20.79;46.48
20160;BME280;50187;50.492;12.134;2022-09-27T16:19:15;95882.13;;;20.84;46.43
20160;BME280;50187;50.492;12.134;2022-09-27T16:22:00;95882.97;;;20.91;46.33
20160;BME280;50187;50.492;12.134;2022-09-27T16:24:47;95885.84;;;20.97;46.98
20160;BME280;50187;50.492;12.134;2022-09-27T16:27:34;95888.56;;;21.03;46.76
20160;BME280;50187;50.492;12.134;2022-09-27T16:30:19;95878.56;;;21.04;46.84
20160;BME280;50187;50.492;12.134;2022-09-27T16:33:04;95885.63;;;21.12;46.76
20160;BME280;50187;50.492;12.134;2022-09-27T16:35:49;95886.25;;;21.14;46.70
20160;BME280;50187;50.492;12.134;2022-09-27T16:38:35;95886.66;;;21.17;46.59
20160;BME280;50187;50.492;12.134;2022-09-27T16:41:21;95895.38;;;21.19;46.50
20160;BME280;50187;50.492;12.134;2022-09-27T16:44:11;95891.22;;;21.23;46.59
20160;BME280;50187;50.492;12.134;2022-09-27T16:46:57;95890.19;;;21.24;46.55
20160;BME280;50187;50.492;12.134;2022-09-27T16:49:43;95893.72;;;21.25;46.44
20160;BME280;50187;50.492;12.134;2022-09-27T16:52:46;95902.03;;;21.30;46.63
20160;BME280;50187;50.492;12.134;2022-09-27T16:55:34;95901.81;;;21.32;47.51
20160;BME280;50187;50.492;12.134;2022-09-27T16:58:20;95909.13;;;21.38;46.65
20160;BME280;50187;50.492;12.134;2022-09-27T17:01:05;95900.56;;;21.34;46.60
20160;BME280;50187;50.492;12.134;2022-09-27T17:03:52;95915.13;;;21.33;46.34
20160;BME280;50187;50.492;12.134;2022-09-27T17:06:41;95918.47;;;21.28;46.31
20160;BME280;50187;50.492;12.134;2022-09-27T17:09:26;95923.06;;;21.21;46.48
20160;BME280;50187;50.492;12.134;2022-09-27T17:12:12;95919.53;;;21.14;46.31
20160;BME280;50187;50.492;12.134;2022-09-27T17:14:58;95924.72;;;21.09;46.54
20160;BME280;50187;50.492;12.134;2022-09-27T17:17:48;95922.88;;;21.03;46.70
20160;BME280;50187;50.492;12.134;2022-09-27T17:20:33;95927.03;;;20.99;46.70